Time;durP1;ratioP1;P1;durP2;ratioP2;P2;SDS_P1;SDS_P2;PMS_P1;PMS_P2;Temp;Humidity;BMP_temperature;BMP_pressure;BME280_temperature;BME280_humidity;BME280_pressure;Samples;Min_cycle;Max_cycle;Signal;HPM_P1;HPM_P2
2024/04/04 00:00:06;;;;;;;0.10;0.10;;;;;;;12.18;73.21;99247.09;7361804;19;20005;-65
2024/04/04 00:02:31;;;;;;;0.10;0.10;;;;;;;12.18;73.27;99247.91;7355008;19;20025;-65
2024/04/04 00:05:01;;;;;;;0.10;0.10;;;;;;;12.17;72.92;99241.00;7355420;19;19999;-65
2024/04/04 00:07:26;;;;;;;0.10;0.10;;;;;;;12.08;73.26;99224.94;7355737;19;20022;-65
2024/04/04 00:09:52;;;;;;;0.10;0.10;;;;;;;12.07;73.49;99229.31;7354871;19;20003;-65
2024/04/04 00:12:19;;;;;;;0.10;0.10;;;;;;;12.05;72.86;99228.53;7354775;19;20026;-65
2024/04/04 00:14:45;;;;;;;0.10;0.10;;;;;;;12.12;73.06;99240.41;7361633;19;20486;-65
2024/04/04 00:17:11;;;;;;;0.10;0.10;;;;;;;12.05;73.56;99231.16;7362614;19;20017;-65
2024/04/04 00:19:36;;;;;;;0.10;0.10;;;;;;;12.02;73.65;99220.88;7358740;19;20070;-65
2024/04/04 00:22:02;;;;;;;0.10;0.10;;;;;;;12.03;73.30;99222.56;7359557;19;20011;-65
2024/04/04 00:24:27;;;;;;;0.10;0.10;;;;;;;11.94;73.57;99212.56;7361004;19;19999;-65
2024/04/04 00:26:53;;;;;;;0.10;0.10;;;;;;;12.04;73.59;99221.63;7361731;19;20017;-65
2024/04/04 00:29:18;;;;;;;0.10;0.10;;;;;;;12.03;73.87;99219.09;7363952;19;20034;-65
2024/04/04 00:31:44;;;;;;;0.08;0.08;;;;;;;12.00;73.49;99212.25;7358564;19;20002;-65
2024/04/04 00:34:09;;;;;;;0.10;0.10;;;;;;;11.98;74.03;99210.66;7363450;19;20011;-65
2024/04/04 00:36:35;;;;;;;0.10;0.10;;;;;;;11.90;73.54;99195.34;7362679;19;20003;-65
2024/04/04 00:39:00;;;;;;;0.10;0.10;;;;;;;11.84;73.75;99187.81;7362879;19;20038;-65
2024/04/04 00:41:26;;;;;;;0.10;0.10;;;;;;;11.93;73.71;99205.66;7355543;19;20014;-65
2024/04/04 00:43:51;;;;;;;0.10;0.10;;;;;;;11.92;73.61;99214.44;7364419;19;20027;-65
2024/04/04 00:46:17;;;;;;;0.00;0.00;;;;;;;11.90;73.80;99209.25;7354822;19;20394;-65
2024/04/04 00:48:42;;;;;;;0.10;0.10;;;;;;;11.89;73.85;99204.13;7365380;19;20015;-65
2024/04/04 00:51:07;;;;;;;0.03;0.03;;;;;;;11.73;73.93;99177.88;7359759;19;20010;-65
2024/04/04 00:53:35;;;;;;;0.10;0.10;;;;;;;11.86;73.70;99189.44;7360053;19;20129;-65
2024/04/04 00:56:01;;;;;;;0.10;0.10;;;;;;;11.85;73.65;99197.34;7360166;19;20014;-66
2024/04/04 00:58:26;;;;;;;0.10;0.10;;;;;;;11.67;73.99;99168.59;7362463;19;20475;-65
2024/04/04 01:00:52;;;;;;;0.00;0.00;;;;;;;11.73;74.07;99185.72;7357751;19;20109;-65
2024/04/04 01:03:17;;;;;;;0.10;0.10;;;;;;;11.79;74.00;99188.03;7361898;19;20018;-66
2024/04/04 01:05:43;;;;;;;0.10;0.10;;;;;;;11.77;74.29;99189.88;7360244;19;20010;-65
2024/04/04 01:08:09;;;;;;;0.05;0.05;;;;;;;11.70;74.41;99185.88;7346952;19;20339;-64
2024/04/04 01:10:34;;;;;;;0.10;0.10;;;;;;;11.61;74.46;99171.53;7361515;19;20022;-65
2024/04/04 01:13:00;;;;;;;0.10;0.10;;;;;;;11.67;74.33;99179.03;7361081;19;20014;-65
2024/04/04 01:15:25;;;;;;;0.10;0.10;;;;;;;11.73;74.48;99180.50;7362118;19;20015;-65
2024/04/04 01:17:51;;;;;;;0.10;0.10;;;;;;;11.74;74.47;99178.72;7359830;19;20018;-65
2024/04/04 01:20:16;;;;;;;0.10;0.10;;;;;;;11.71;74.19;99179.75;7361398;19;20018;-65
2024/04/04 01:22:41;;;;;;;0.00;0.00;;;;;;;11.55;74.49;99148.28;7359754;19;20009;-66
2024/04/04 01:25:07;;;;;;;0.10;0.10;;;;;;;11.69;74.54;99171.13;7352496;19;20010;-66
2024/04/04 01:27:33;;;;;;;0.10;0.10;;;;;;;11.59;74.54;99147.22;7361008;19;20015;-65
2024/04/04 01:29:58;;;;;;;0.10;0.10;;;;;;;11.58;74.43;99142.06;7361277;19;20484;-65
2024/04/04 01:32:24;;;;;;;0.10;0.10;;;;;;;11.72;74.32;99160.50;7361187;19;20002;-65
2024/04/04 01:34:49;;;;;;;0.10;0.10;;;;;;;11.74;74.34;99160.41;7360139;19;20923;-65
2024/04/04 01:37:15;;;;;;;0.10;0.10;;;;;;;11.74;74.68;99152.56;7357382;19;20007;-66
2024/04/04 01:39:40;;;;;;;0.10;0.10;;;;;;;11.74;74.61;99157.81;7359472;19;20011;-65
2024/04/04 01:42:05;;;;;;;0.10;0.10;;;;;;;11.74;74.50;99157.81;7349665;19;20010;-66
2024/04/04 01:44:31;;;;;;;0.15;0.15;;;;;;;11.74;74.48;99153.41;7360911;19;20696;-65
2024/04/04 01:46:56;;;;;;;0.10;0.10;;;;;;;11.73;74.26;99150.88;7357949;19;20039;-66
2024/04/04 01:49:22;;;;;;;0.10;0.10;;;;;;;11.75;74.25;99156.88;7361471;19;20030;-66
2024/04/04 01:51:47;;;;;;;0.10;0.10;;;;;;;11.74;74.57;99148.19;7358415;19;20010;-65
2024/04/04 01:54:14;;;;;;;0.10;0.10;;;;;;;11.75;74.36;99154.25;7353765;19;20021;-65
2024/04/04 01:56:40;;;;;;;0.10;0.10;;;;;;;11.74;74.19;99157.81;7361155;19;20011;-65
2024/04/04 01:59:05;;;;;;;0.10;0.10;;;;;;;11.68;74.17;99153.75;7357157;19;20007;-65
2024/04/04 02:01:31;;;;;;;0.10;0.10;;;;;;;11.72;74.61;99157.06;7360996;19;20010;-65
2024/04/04 02:03:57;;;;;;;0.10;0.10;;;;;;;11.65;74.44;99152.13;7361970;19;20009;-66
2024/04/04 02:06:22;;;;;;;0.10;0.10;;;;;;;11.67;74.24;99152.91;7361095;19;20006;-64
2024/04/04 02:08:47;;;;;;;0.10;0.10;;;;;;;11.64;74.69;99158.28;7362945;19;20014;-65
2024/04/04 02:11:13;;;;;;;0.10;0.10;;;;;;;11.66;74.32;99159.06;7362749;19;20018;-64
2024/04/04 02:13:39;;;;;;;0.10;0.10;;;;;;;11.66;74.79;99156.44;7359446;19;20018;-65
2024/04/04 02:16:04;;;;;;;0.10;0.10;;;;;;;11.66;74.43;99159.06;7364581;19;20015;-65
2024/04/04 02:18:30;;;;;;;0.10;0.10;;;;;;;11.62;74.43;99154.06;7360236;19;20040;-65
2024/04/04 02:20:55;;;;;;;0.10;0.10;;;;;;;11.49;74.56;99132.91;7363553;19;20030;-65
2024/04/04 02:23:21;;;;;;;0.10;0.10;;;;;;;11.63;74.86;99150.53;7356639;19;20504;-65
2024/04/04 02:25:46;;;;;;;0.10;0.10;;;;;;;11.64;74.77;99146.97;7362614;19;20085;-66
2024/04/04 02:28:11;;;;;;;0.10;0.10;;;;;;;11.61;74.79;99142.75;7360585;19;20078;-65
2024/04/04 02:30:37;;;;;;;0.10;0.10;;;;;;;11.51;74.69;99132.88;7359104;19;20347;-66
2024/04/04 02:33:04;;;;;;;0.10;0.10;;;;;;;11.54;74.79;99141.38;7362476;19;20038;-65
2024/04/04 02:35:29;;;;;;;0.10;0.10;;;;;;;11.49;74.30;99132.06;7358790;19;20006;-65
2024/04/04 02:37:55;;;;;;;0.10;0.10;;;;;;;11.60;74.34;99151.50;7354919;19;20458;-65
2024/04/04 02:40:20;;;;;;;0.10;0.10;;;;;;;11.58;74.47;99148.13;7357619;19;20017;-65
2024/04/04 02:42:45;;;;;;;0.10;0.10;;;;;;;11.58;74.71;99150.75;7357897;19;20853;-65
2024/04/04 02:45:11;;;;;;;0.10;0.10;;;;;;;11.58;74.70;99148.13;7363417;19;20041;-65
2024/04/04 02:47:36;;;;;;;0.10;0.10;;;;;;;11.56;74.65;99143.94;7362374;19;20027;-65
2024/04/04 02:50:03;;;;;;;0.10;0.10;;;;;;;11.48;74.80;99130.41;7360998;19;20033;-65
2024/04/04 02:52:28;;;;;;;0.10;0.10;;;;;;;11.56;74.78;99144.78;7353748;19;20491;-66
2024/04/04 02:54:54;;;;;;;0.03;0.03;;;;;;;11.56;74.46;99142.16;7360981;19;20006;-65
2024/04/04 02:57:19;;;;;;;0.10;0.10;;;;;;;11.55;74.89;99148.28;7361248;19;20048;-66
2024/04/04 02:59:45;;;;;;;0.13;0.13;;;;;;;11.49;74.78;99140.75;7358157;19;20014;-66
2024/04/04 03:02:10;;;;;;;0.10;0.10;;;;;;;11.47;74.72;99129.56;7361537;19;19999;-65
2024/04/04 03:04:37;;;;;;;0.00;0.00;;;;;;;11.54;74.79;99146.59;7355357;19;20078;-64
2024/04/04 03:07:03;;;;;;;0.10;0.10;;;;;;;11.54;74.94;99145.75;7362743;19;20010;-66
2024/04/04 03:09:28;;;;;;;0.10;0.10;;;;;;;11.53;74.63;99144.91;7355036;19;20048;-65
2024/04/04 03:11:54;;;;;;;0.10;0.10;;;;;;;11.53;74.74;99147.53;7361649;19;20006;-65
2024/04/04 03:14:19;;;;;;;0.10;0.10;;;;;;;11.53;74.63;99146.69;7345501;19;20014;-65
2024/04/04 03:16:44;;;;;;;0.10;0.10;;;;;;;11.51;74.80;99132.88;7342479;19;20672;-65
2024/04/04 03:19:10;;;;;;;0.10;0.10;;;;;;;11.52;74.58;99132.78;7359912;19;20011;-66
2024/04/04 03:21:36;;;;;;;0.10;0.10;;;;;;;11.40;74.78;99117.69;7358845;19;20405;-65
2024/04/04 03:24:02;;;;;;;0.10;0.10;;;;;;;11.41;74.82;99114.19;7357850;19;20103;-65
2024/04/04 03:26:27;;;;;;;0.10;0.10;;;;;;;11.48;74.68;99126.00;7359653;19;20018;-65
2024/04/04 03:28:52;;;;;;;0.10;0.10;;;;;;;11.50;74.88;99129.38;7361155;19;20006;-65
2024/04/04 03:31:18;;;;;;;0.10;0.10;;;;;;;11.49;74.57;99122.47;7360309;19;20014;-65
2024/04/04 03:33:43;;;;;;;0.10;0.10;;;;;;;11.49;74.75;99125.06;7361230;19;20040;-65
2024/04/04 03:36:09;;;;;;;0.08;0.08;;;;;;;11.49;74.89;99121.63;7356888;19;20082;-65
2024/04/04 03:38:34;;;;;;;0.10;0.10;;;;;;;11.44;74.83;99125.31;7358200;19;20010;-65
2024/04/04 03:41:00;;;;;;;0.10;0.10;;;;;;;11.47;74.85;99124.31;7367876;19;20013;-65
2024/04/04 03:43:26;;;;;;;0.10;0.10;;;;;;;11.46;74.50;99132.25;7364265;19;20030;-65
2024/04/04 03:45:52;;;;;;;0.10;0.10;;;;;;;11.38;74.71;99124.78;7367751;19;20018;-65
2024/04/04 03:48:18;;;;;;;0.10;0.10;;;;;;;11.29;74.39;99099.97;7368755;19;20007;-65
2024/04/04 03:50:44;;;;;;;0.10;0.10;;;;;;;11.40;74.24;99133.38;7368903;19;20504;-66
2024/04/04 03:53:11;;;;;;;0.10;0.10;;;;;;;11.41;74.92;99130.72;7360713;19;20485;-66
2024/04/04 03:55:36;;;;;;;0.10;0.10;;;;;;;11.37;74.98;99128.34;7368661;19;20022;-65
2024/04/04 03:58:02;;;;;;;0.10;0.10;;;;;;;11.41;74.77;99132.50;7368914;19;19998;-65
2024/04/04 04:00:28;;;;;;;0.10;0.10;;;;;;;11.38;74.72;99145.69;7363734;19;20011;-66
2024/04/04 04:02:53;;;;;;;0.10;0.10;;;;;;;11.34;74.89;99133.69;7367305;19;20025;-65
2024/04/04 04:05:19;;;;;;;0.10;0.10;;;;;;;11.39;74.66;99148.22;7364633;19;20070;-66
2024/04/04 04:07:44;;;;;;;0.10;0.10;;;;;;;11.42;74.78;99152.47;7364792;19;20003;-65
2024/04/04 04:10:10;;;;;;;0.10;0.10;;;;;;;11.42;74.82;99150.69;7366363;19;20093;-64
2024/04/04 04:12:36;;;;;;;0.10;0.10;;;;;;;11.40;74.98;99144.72;7367616;19;20018;-65
2024/04/04 04:15:02;;;;;;;0.10;0.10;;;;;;;11.43;75.25;99154.16;7365454;19;20374;-65
2024/04/04 04:17:27;;;;;;;0.10;0.10;;;;;;;11.36;75.11;99142.34;7368655;19;20018;-65
2024/04/04 04:19:53;;;;;;;0.10;0.10;;;;;;;11.45;74.84;99157.53;7368009;19;20087;-65
2024/04/04 04:22:18;;;;;;;0.10;0.10;;;;;;;11.35;75.10;99140.63;7363277;19;20081;-66
2024/04/04 04:24:43;;;;;;;0.13;0.13;;;;;;;11.44;75.08;99146.22;7366438;19;20006;-65
2024/04/04 04:27:09;;;;;;;0.00;0.00;;;;;;;11.47;75.19;99155.69;7366620;19;20030;-65
2024/04/04 04:29:34;;;;;;;0.10;0.10;;;;;;;11.48;74.77;99153.91;7364354;19;20691;-66
2024/04/04 04:32:00;;;;;;;0.10;0.10;;;;;;;11.47;75.04;99150.47;7367078;19;20569;-66
2024/04/04 04:34:25;;;;;;;0.10;0.10;;;;;;;11.49;74.85;99153.00;7367007;19;20013;-65
2024/04/04 04:36:55;;;;;;;0.13;0.13;;;;;;;11.51;74.77;99151.16;7366970;19;20018;-65
2024/04/04 04:39:21;;;;;;;0.10;0.10;;;;;;;11.47;74.85;99147.84;7367895;19;20015;-65
2024/04/04 04:41:47;;;;;;;0.05;0.05;;;;;;;11.48;75.03;99160.00;7362259;19;20011;-65
2024/04/04 04:44:13;;;;;;;0.10;0.10;;;;;;;11.37;74.81;99134.41;7366463;19;20848;-65
2024/04/04 04:46:38;;;;;;;0.10;0.10;;;;;;;11.50;74.81;99165.13;7355005;19;20090;-65
2024/04/04 04:49:04;;;;;;;0.10;0.10;;;;;;;11.51;74.71;99166.84;7362551;19;20098;-64
2024/04/04 04:51:29;;;;;;;0.10;0.10;;;;;;;11.51;75.13;99164.22;7364649;19;20015;-65
2024/04/04 04:53:56;;;;;;;0.10;0.10;;;;;;;11.52;75.11;99169.38;7360440;19;20058;-66
2024/04/04 04:56:22;;;;;;;0.10;0.10;;;;;;;11.44;74.85;99156.69;7358025;19;20040;-66
2024/04/04 04:58:47;;;;;;;0.10;0.10;;;;;;;11.52;74.79;99174.59;7362262;19;20006;-65
2024/04/04 05:01:13;;;;;;;0.10;0.10;;;;;;;11.50;75.08;99165.97;7359892;19;20334;-65
2024/04/04 05:03:39;;;;;;;0.10;0.10;;;;;;;11.54;75.16;99167.50;7366490;19;20805;-66
2024/04/04 05:06:07;;;;;;;0.10;0.10;;;;;;;11.55;74.76;99170.97;7364447;19;20006;-66
2024/04/04 05:08:32;;;;;;;0.10;0.10;;;;;;;11.48;74.84;99157.38;7361621;19;20046;-66
2024/04/04 05:10:59;;;;;;;0.10;0.10;;;;;;;11.57;75.02;99172.59;7360422;19;20473;-65
2024/04/04 05:13:26;;;;;;;0.10;0.10;;;;;;;11.57;74.93;99167.38;7363995;19;20014;-65
2024/04/04 05:15:53;;;;;;;0.10;0.10;;;;;;;11.46;75.03;99142.72;7360672;19;20834;-65
2024/04/04 05:18:19;;;;;;;0.10;0.10;;;;;;;11.57;75.03;99156.91;7363828;19;20089;-65
2024/04/04 05:20:44;;;;;;;0.20;0.20;;;;;;;11.39;74.98;99131.69;7358901;19;20519;-65
2024/04/04 05:23:10;;;;;;;0.10;0.10;;;;;;;11.58;74.88;99174.28;7367071;19;20390;-66
2024/04/04 05:25:35;;;;;;;0.10;0.10;;;;;;;11.59;74.67;99173.34;7365207;19;20007;-65
2024/04/04 05:28:01;;;;;;;0.10;0.10;;;;;;;11.58;75.08;99174.28;7367316;19;20018;-65
2024/04/04 05:30:28;;;;;;;0.10;0.10;;;;;;;11.57;75.03;99166.53;7359200;19;20457;-65
2024/04/04 05:32:53;;;;;;;0.10;0.10;;;;;;;11.58;74.69;99174.28;7363689;19;20010;-65
2024/04/04 05:35:19;;;;;;;0.10;0.10;;;;;;;11.45;74.97;99152.28;7362662;19;20010;-65
2024/04/04 05:37:44;;;;;;;0.08;0.08;;;;;;;11.43;74.66;99154.16;7363453;19;20030;-66
2024/04/04 05:40:10;;;;;;;0.10;0.10;;;;;;;11.58;74.96;99182.13;7357418;19;20014;-66
2024/04/04 05:42:36;;;;;;;0.10;0.10;;;;;;;11.57;74.93;99182.22;7352893;19;20020;-65
2024/04/04 05:45:02;;;;;;;0.00;0.00;;;;;;;11.58;75.04;99187.34;7363839;19;20033;-66
2024/04/04 05:47:27;;;;;;;0.10;0.10;;;;;;;11.58;75.18;99187.34;7362222;19;20540;-65
2024/04/04 05:49:54;;;;;;;0.10;0.10;;;;;;;11.44;74.93;99167.13;7359862;19;20036;-65
2024/04/04 05:52:19;;;;;;;0.13;0.13;;;;;;;11.60;74.83;99182.88;7360743;19;20018;-65
2024/04/04 05:54:47;;;;;;;0.10;0.10;;;;;;;11.59;74.78;99175.97;7361585;19;20048;-65
2024/04/04 05:57:13;;;;;;;0.10;0.10;;;;;;;11.61;74.81;99183.75;7363939;19;20002;-65
2024/04/04 05:59:38;;;;;;;0.10;0.10;;;;;;;11.60;75.08;99182.88;7357533;19;20875;-66
2024/04/04 06:02:04;;;;;;;0.10;0.10;;;;;;;11.60;74.61;99188.09;7363307;19;20011;-65
2024/04/04 06:04:29;;;;;;;0.10;0.10;;;;;;;11.57;74.79;99187.44;7362598;19;20026;-65
2024/04/04 06:06:55;;;;;;;0.10;0.10;;;;;;;11.56;74.88;99189.22;7359674;19;20006;-65
2024/04/04 06:09:20;;;;;;;0.10;0.10;;;;;;;11.58;75.12;99205.66;7356792;19;20010;-65
2024/04/04 06:11:46;;;;;;;0.17;0.17;;;;;;;11.61;75.12;99218.59;7362120;19;20027;-64
2024/04/04 06:14:11;;;;;;;0.10;0.10;;;;;;;11.61;75.24;99223.81;7355395;19;20011;-65
2024/04/04 06:16:36;;;;;;;0.15;0.15;;;;;;;11.62;74.97;99228.13;7359295;19;20015;-65
2024/04/04 06:19:02;;;;;;;0.10;0.10;;;;;;;11.45;75.27;99196.72;7363788;19;20003;-64
2024/04/04 06:21:27;;;;;;;0.10;0.10;;;;;;;11.56;75.00;99212.75;7353712;19;20014;-65
2024/04/04 06:23:53;;;;;;;0.10;0.10;;;;;;;11.65;74.99;99222.72;7363345;19;20006;-64
2024/04/04 06:26:18;;;;;;;0.10;0.10;;;;;;;11.61;74.82;99234.28;7362897;19;20574;-65
2024/04/04 06:28:47;;;;;;;0.10;0.10;;;;;;;11.68;74.83;99250.50;7354167;19;20018;-65
2024/04/04 06:31:13;;;;;;;0.10;0.10;;;;;;;11.66;75.16;99250.56;7356960;19;20093;-65
2024/04/04 06:33:38;;;;;;;0.10;0.10;;;;;;;11.67;74.80;99252.25;7362751;19;20090;-66
2024/04/04 06:36:04;;;;;;;0.10;0.10;;;;;;;11.69;74.64;99260.84;7352464;19;20652;-65
2024/04/04 06:38:30;;;;;;;0.10;0.10;;;;;;;11.69;74.70;99260.84;7364865;19;20011;-64
2024/04/04 06:40:55;;;;;;;0.10;0.10;;;;;;;11.65;74.80;99250.63;7361375;19;20506;-65
2024/04/04 06:43:20;;;;;;;0.10;0.10;;;;;;;11.70;74.56;99252.09;7356924;19;20045;-66
2024/04/04 06:45:46;;;;;;;0.10;0.10;;;;;;;11.72;74.55;99256.41;7362104;19;20637;-66
2024/04/04 06:48:11;;;;;;;0.10;0.10;;;;;;;11.74;74.90;99265.03;7363868;19;20011;-65
2024/04/04 06:50:37;;;;;;;0.10;0.10;;;;;;;11.76;74.99;99278.84;7359279;19;20013;-65
2024/04/04 06:53:03;;;;;;;0.10;0.10;;;;;;;11.74;74.74;99272.88;7353664;19;20347;-65
2024/04/04 06:55:28;;;;;;;0.20;0.20;;;;;;;11.76;74.63;99281.47;7360862;19;20494;-65
2024/04/04 06:57:54;;;;;;;0.10;0.10;;;;;;;11.74;74.58;99283.31;7358447;19;20066;-65
2024/04/04 07:00:20;;;;;;;0.10;0.10;;;;;;;11.79;74.84;99291.78;7362878;19;20106;-65
2024/04/04 07:02:45;;;;;;;0.10;0.10;;;;;;;11.72;74.63;99283.41;7355514;19;19995;-65
2024/04/04 07:05:11;;;;;;;0.10;0.10;;;;;;;11.81;74.51;99301.25;7360067;19;20031;-65
2024/04/04 07:07:36;;;;;;;0.10;0.10;;;;;;;11.67;74.72;99283.63;7358313;19;20006;-65
2024/04/04 07:10:04;;;;;;;0.10;0.10;;;;;;;11.85;74.66;99302.81;7363327;19;20017;-65
2024/04/04 07:12:30;;;;;;;0.10;0.10;;;;;;;11.85;74.41;99299.34;7355447;19;20082;-66
2024/04/04 07:14:56;;;;;;;0.10;0.10;;;;;;;11.80;74.21;99298.69;7358080;19;20078;-65
2024/04/04 07:17:22;;;;;;;0.10;0.10;;;;;;;11.87;74.41;99305.38;7363218;19;20097;-65
2024/04/04 07:19:54;;;;;;;0.05;0.05;;;;;;;11.91;74.35;99307.75;7366157;19;20014;-65
2024/04/04 07:22:21;;;;;;;0.10;0.10;;;;;;;11.89;74.36;99313.97;7364742;19;20346;-65
2024/04/04 07:24:46;;;;;;;0.10;0.10;;;;;;;11.89;73.95;99327.06;7364362;19;20019;-65
2024/04/04 07:27:12;;;;;;;0.10;0.10;;;;;;;11.87;73.75;99327.13;7369114;19;20014;-65
2024/04/04 07:29:37;;;;;;;0.10;0.10;;;;;;;11.83;73.74;99314.28;7367817;19;20022;-65
2024/04/04 07:32:03;;;;;;;0.20;0.20;;;;;;;11.88;73.78;99328.81;7365165;19;20023;-65
2024/04/04 07:34:28;;;;;;;0.10;0.10;;;;;;;11.86;73.89;99332.44;7367193;19;20022;-65
2024/04/04 07:36:54;;;;;;;0.10;0.10;;;;;;;11.88;74.20;99333.22;7363093;19;20017;-65
2024/04/04 07:39:20;;;;;;;0.10;0.10;;;;;;;11.77;74.21;99335.50;7367958;19;20026;-65
2024/04/04 07:41:47;;;;;;;0.10;0.10;;;;;;;11.88;74.13;99336.69;7365813;19;21055;-65
2024/04/04 07:44:12;;;;;;;0.10;0.10;;;;;;;11.74;73.58;99314.72;7361491;19;20574;-65
2024/04/04 07:46:38;;;;;;;0.10;0.10;;;;;;;11.87;73.77;99345.44;7364940;19;20014;-65
2024/04/04 07:49:03;;;;;;;0.20;0.20;;;;;;;11.85;74.02;99346.44;7365559;19;20014;-66
2024/04/04 07:51:28;;;;;;;0.10;0.10;;;;;;;11.87;73.54;99342.00;7368338;19;20025;-65
2024/04/04 07:53:54;;;;;;;0.10;0.10;;;;;;;11.75;73.81;99321.63;7360018;19;20404;-65
2024/04/04 07:56:20;;;;;;;0.20;0.20;;;;;;;11.86;73.39;99335.91;7365551;19;20022;-66
2024/04/04 07:58:47;;;;;;;0.10;0.10;;;;;;;11.77;73.71;99320.66;7367130;19;20006;-66
2024/04/04 08:01:14;;;;;;;0.10;0.10;;;;;;;11.85;73.62;99328.13;7367880;19;20392;-66
2024/04/04 08:03:40;;;;;;;0.10;0.10;;;;;;;11.84;73.73;99327.28;7362782;19;20613;-66
2024/04/04 08:06:05;;;;;;;0.10;0.10;;;;;;;11.83;73.43;99324.75;7365812;19;20018;-66
2024/04/04 08:08:31;;;;;;;0.10;0.10;;;;;;;11.83;73.39;99327.38;7364107;19;21241;-65
2024/04/04 08:10:56;;;;;;;0.10;0.10;;;;;;;11.81;73.90;99332.66;7366175;19;20098;-65
2024/04/04 08:13:22;;;;;;;0.10;0.10;;;;;;;11.80;73.82;99325.69;7365654;19;20006;-65
2024/04/04 08:15:51;;;;;;;0.10;0.10;;;;;;;11.79;73.47;99328.41;7367834;19;20351;-65
2024/04/04 08:18:19;;;;;;;0.10;0.10;;;;;;;11.82;73.31;99338.75;7363115;19;20029;-65
2024/04/04 08:20:46;;;;;;;0.08;0.08;;;;;;;11.79;73.59;99333.63;7364626;19;20596;-66
2024/04/04 08:23:11;;;;;;;0.10;0.10;;;;;;;11.79;73.88;99334.47;7363965;19;20010;-65
2024/04/04 08:25:37;;;;;;;0.10;0.10;;;;;;;11.80;74.12;99335.31;7365305;19;20014;-65
2024/04/04 08:28:04;;;;;;;0.10;0.10;;;;;;;11.65;73.50;99314.22;7357063;19;20006;-65
2024/04/04 08:30:30;;;;;;;0.10;0.10;;;;;;;11.76;73.62;99342.50;7359689;19;20789;-65
2024/04/04 08:32:55;;;;;;;0.10;0.10;;;;;;;11.79;73.84;99344.09;7366221;19;20023;-65
2024/04/04 08:35:22;;;;;;;0.10;0.10;;;;;;;11.82;73.39;99344.00;7367960;19;20015;-66
2024/04/04 08:37:48;;;;;;;0.10;0.10;;;;;;;11.80;73.71;99345.78;7359054;19;20006;-65
2024/04/04 08:40:14;;;;;;;0.10;0.10;;;;;;;11.64;73.60;99325.63;7365711;19;20010;-66
2024/04/04 08:42:41;;;;;;;0.10;0.10;;;;;;;11.81;73.52;99365.78;7361004;19;20603;-65
2024/04/04 08:45:09;;;;;;;0.10;0.10;;;;;;;11.75;73.42;99358.25;7361704;19;20023;-65
2024/04/04 08:47:36;;;;;;;0.10;0.10;;;;;;;11.64;73.31;99343.06;7365675;19;20106;-65
2024/04/04 08:50:03;;;;;;;0.10;0.10;;;;;;;11.81;73.25;99376.25;7366763;19;20022;-66
2024/04/04 08:52:30;;;;;;;0.10;0.10;;;;;;;11.80;73.35;99378.00;7365110;19;20053;-65
2024/04/04 08:54:56;;;;;;;0.08;0.08;;;;;;;11.81;73.54;99377.13;7365749;19;20010;-66
2024/04/04 08:57:23;;;;;;;0.10;0.10;;;;;;;11.83;73.06;99382.28;7360275;19;20011;-66
2024/04/04 08:59:58;;;;;;;0.10;0.10;;;;;;;11.85;72.84;99385.66;7363927;19;20027;-66
2024/04/04 09:02:24;;;;;;;0.10;0.10;;;;;;;11.77;72.99;99377.34;7365374;19;20046;-64
2024/04/04 09:04:49;;;;;;;0.10;0.10;;;;;;;11.83;73.18;99395.38;7357898;19;20007;-65
2024/04/04 09:07:15;;;;;;;0.10;0.10;;;;;;;11.84;72.97;99392.66;7364997;19;20086;-66
2024/04/04 09:09:46;;;;;;;0.13;0.13;;;;;;;11.83;72.79;99377.06;7363504;19;20018;-65
2024/04/04 09:12:16;;;;;;;0.10;0.10;;;;;;;11.78;72.98;99368.56;7363470;19;20018;-65
2024/04/04 09:14:41;;;;;;;0.10;0.10;;;;;;;11.87;72.91;99378.59;7364497;19;20002;-65
2024/04/04 09:17:07;;;;;;;0.10;0.10;;;;;;;11.88;73.09;99389.00;7364708;19;20483;-65
2024/04/04 09:19:33;;;;;;;0.10;0.10;;;;;;;11.84;73.27;99379.59;7362801;19;20030;-66
2024/04/04 09:21:58;;;;;;;0.10;0.10;;;;;;;11.90;73.17;99388.91;7362868;19;20017;-66
2024/04/04 09:24:24;;;;;;;0.10;0.10;;;;;;;11.91;73.11;99390.59;7364254;19;20092;-65
2024/04/04 09:26:49;;;;;;;0.10;0.10;;;;;;;11.83;72.72;99382.28;7361380;19;20010;-66
2024/04/04 09:29:16;;;;;;;0.10;0.10;;;;;;;11.80;72.61;99378.00;7364388;19;20017;-65
2024/04/04 09:31:43;;;;;;;0.10;0.10;;;;;;;11.76;72.85;99370.38;7361989;19;20010;-65
2024/04/04 09:34:10;;;;;;;0.10;0.10;;;;;;;11.90;72.95;99396.75;7365310;19;20023;-66
2024/04/04 09:36:37;;;;;;;0.10;0.10;;;;;;;11.92;72.72;99395.78;7357306;19;20501;-65
2024/04/04 09:39:19;;;;;;;0.10;0.10;;;;;;;11.74;72.53;99367.84;7365920;19;20094;-65
2024/04/04 09:41:46;;;;;;;0.10;0.10;;;;;;;11.94;72.27;99393.06;7363428;19;20046;-65
2024/04/04 09:44:13;;;;;;;0.00;0.00;;;;;;;11.93;72.79;99388.75;7359268;19;20041;-65
2024/04/04 09:46:40;;;;;;;0.17;0.17;;;;;;;11.91;72.42;99388.84;7335132;19;20006;-65
2024/04/04 09:49:06;;;;;;;0.10;0.10;;;;;;;12.01;72.68;99412.75;7360007;19;20018;-65
2024/04/04 09:51:33;;;;;;;0.10;0.10;;;;;;;12.03;72.65;99402.25;7359777;19;20018;-65
2024/04/04 09:53:59;;;;;;;0.10;0.10;;;;;;;12.10;72.71;99420.16;7361993;19;20017;-65
2024/04/04 09:56:26;;;;;;;0.10;0.10;;;;;;;11.97;72.75;99384.25;7356652;19;20022;-66
2024/04/04 09:58:53;;;;;;;0.10;0.10;;;;;;;12.14;72.21;99408.63;7364455;19;20449;-66
2024/04/04 10:01:23;;;;;;;0.10;0.10;;;;;;;12.24;72.25;99416.88;7364695;19;20022;-65
2024/04/04 10:03:52;;;;;;;0.10;0.10;;;;;;;12.27;71.81;99408.88;7363438;19;20037;-65
2024/04/04 10:06:35;;;;;;;0.10;0.10;;;;;;;12.32;72.07;99406.88;7362559;19;20398;-65
2024/04/04 10:09:12;;;;;;;0.10;0.10;;;;;;;12.31;72.02;99404.31;7362922;19;20070;-65
2024/04/04 10:11:37;;;;;;;0.10;0.10;;;;;;;12.37;72.05;99398.78;7362095;19;20025;-65
2024/04/04 10:14:03;;;;;;;0.10;0.10;;;;;;;12.41;71.95;99403.78;7356145;19;20002;-66
2024/04/04 10:16:38;;;;;;;0.10;0.10;;;;;;;12.52;71.66;99410.22;7360655;19;20010;-66
2024/04/04 10:19:18;;;;;;;0.10;0.10;;;;;;;12.59;71.39;99409.00;7359174;19;20837;-65
2024/04/04 10:21:44;;;;;;;0.10;0.10;;;;;;;12.52;71.53;99403.25;7358632;19;20006;-64
2024/04/04 10:24:28;;;;;;;0.10;0.10;;;;;;;12.70;71.65;99407.50;7359803;19;20010;-65
2024/04/04 10:26:55;;;;;;;0.10;0.10;;;;;;;12.76;71.24;99415.97;7360451;19;20608;-66
2024/04/04 10:29:24;;;;;;;0.10;0.10;;;;;;;12.82;71.13;99397.31;7351606;19;20406;-66
2024/04/04 10:31:50;;;;;;;0.10;0.10;;;;;;;12.88;71.35;99404.88;7359591;19;20022;-65
2024/04/04 10:34:15;;;;;;;0.10;0.10;;;;;;;12.94;71.17;99404.53;7359901;19;20010;-65
2024/04/04 10:36:43;;;;;;;0.10;0.10;;;;;;;13.01;70.86;99394.56;7361991;19;20034;-65
2024/04/04 10:39:12;;;;;;;;;;;;;;;13.10;70.33;99400.16;7359695;19;20014;-65
2024/04/04 10:41:38;;;;;;;0.10;0.10;;;;;;;13.11;70.54;99401.00;7355003;19;19990;-65
2024/04/04 10:44:17;;;;;;;0.10;0.10;;;;;;;13.16;70.50;99399.84;7356983;19;20087;-65
2024/04/04 10:46:54;;;;;;;0.10;0.10;;;;;;;13.21;70.48;99394.34;7359213;19;20017;-65
2024/04/04 10:49:23;;;;;;;0.10;0.10;;;;;;;13.19;70.40;99389.19;7360461;19;20098;-65
2024/04/04 10:52:00;;;;;;;0.10;0.10;;;;;;;13.19;70.22;99389.19;7363713;19;20019;-65
2024/04/04 10:54:28;;;;;;;0.10;0.10;;;;;;;13.23;70.39;99401.25;7364578;19;20038;-65
2024/04/04 10:56:53;;;;;;;0.10;0.10;;;;;;;13.23;70.44;99406.47;7365735;19;20062;-66
2024/04/04 10:59:20;;;;;;;0.10;0.10;;;;;;;13.17;70.41;99396.28;7365300;19;20006;-65
2024/04/04 11:01:49;;;;;;;0.10;0.10;;;;;;;13.32;69.85;99409.50;7364230;19;20003;-65
2024/04/04 11:04:16;;;;;;;0.17;0.17;;;;;;;13.35;70.01;99410.22;7362536;19;20014;-65
2024/04/04 11:06:44;;;;;;;0.00;0.00;;;;;;;13.40;70.17;99413.41;7363356;19;20023;-65
2024/04/04 11:09:19;;;;;;;0.10;0.10;;;;;;;13.48;69.75;99420.84;7366704;19;20090;-64
2024/04/04 11:11:47;;;;;;;0.10;0.10;;;;;;;13.56;70.02;99407.34;7366708;19;20015;-65
2024/04/04 11:14:13;;;;;;;0.10;0.10;;;;;;;13.63;69.82;99403.41;7355379;19;20007;-65
2024/04/04 11:16:39;;;;;;;0.10;0.10;;;;;;;13.75;69.52;99411.47;7362810;19;20018;-65
2024/04/04 11:19:09;;;;;;;0.10;0.10;;;;;;;13.89;69.24;99418.56;7365677;19;20143;-65
2024/04/04 11:21:35;;;;;;;0.10;0.10;;;;;;;13.95;68.87;99410.34;7364153;19;20011;-65
2024/04/04 11:24:01;;;;;;;0.10;0.10;;;;;;;14.05;68.85;99410.66;7364443;19;20026;-66
2024/04/04 11:26:28;;;;;;;0.10;0.10;;;;;;;14.04;68.79;99401.09;7362844;19;20010;-65
2024/04/04 11:28:53;;;;;;;0.10;0.10;;;;;;;14.23;68.64;99399.06;7366622;19;20040;-65